createdAt,value
2022-08-26T00:00:04.882Z,5.35
2022-08-26T00:05:42.299Z,5.05
2022-08-26T00:10:48.231Z,4.90
2022-08-26T00:15:55.543Z,4.53
2022-08-26T00:21:06.171Z,5.15
2022-08-26T00:26:12.305Z,4.40
2022-08-26T00:31:18.244Z,4.35
2022-08-26T00:36:29.728Z,4.75
2022-08-26T00:41:35.581Z,4.57
2022-08-26T00:46:47.544Z,4.60
2022-08-26T00:51:58.211Z,4.65
2022-08-26T00:57:16.445Z,4.63
2022-08-26T01:02:22.919Z,6.20
2022-08-26T01:07:34.835Z,6.20
2022-08-26T01:12:44.734Z,5.63
2022-08-26T01:17:50.721Z,7.00
2022-08-26T01:23:04.182Z,5.57
2022-08-26T01:28:13.303Z,9.35
2022-08-26T01:33:24.191Z,9.60
2022-08-26T01:38:32.498Z,9.90
2022-08-26T01:43:41.375Z,10.77
2022-08-26T01:48:48.660Z,10.05
2022-08-26T01:54:01.046Z,9.90
2022-08-26T01:59:12.807Z,10.80
2022-08-26T02:04:25.367Z,13.07
2022-08-26T02:09:33.638Z,11.07
2022-08-26T02:14:51.300Z,12.02
2022-08-26T02:19:57.193Z,18.15
2022-08-26T02:25:14.430Z,16.27
2022-08-26T02:30:23.078Z,15.43
2022-08-26T02:35:29.766Z,13.60
2022-08-26T02:40:41.823Z,14.63
2022-08-26T02:45:47.302Z,13.97
2022-08-26T02:50:53.616Z,14.40
2022-08-26T02:56:01.875Z,13.05
2022-08-26T03:01:09.381Z,14.97
2022-08-26T03:06:14.970Z,12.73
2022-08-26T03:11:25.542Z,18.15
2022-08-26T03:16:35.551Z,15.03
2022-08-26T03:21:41.575Z,12.33
2022-08-26T03:26:52.862Z,16.63
2022-08-26T03:31:58.450Z,12.57
2022-08-26T03:37:04.515Z,12.80
2022-08-26T03:42:15.198Z,14.20
2022-08-26T03:47:21.997Z,15.80
2022-08-26T03:52:27.487Z,13.77
2022-08-26T03:57:35.781Z,13.65
2022-08-26T04:02:42.042Z,15.73
2022-08-26T04:07:47.835Z,13.37
2022-08-26T04:12:58.706Z,17.73
2022-08-26T04:18:04.479Z,13.82
2022-08-26T04:23:10.216Z,13.52
2022-08-26T04:28:18.611Z,11.73
2022-08-26T04:33:32.267Z,14.93
2022-08-26T04:38:39.057Z,11.50
2022-08-26T04:43:49.101Z,12.37
2022-08-26T04:48:57.103Z,11.70
2022-08-26T04:54:03.400Z,10.70
2022-08-26T04:59:17.047Z,9.17
2022-08-26T05:04:24.126Z,10.40
2022-08-26T05:09:31.482Z,10.52
2022-08-26T05:14:41.745Z,10.63
2022-08-26T05:19:47.255Z,10.40
2022-08-26T05:24:53.091Z,8.60
2022-08-26T05:30:02.660Z,9.27
2022-08-26T05:35:10.120Z,9.73
2022-08-26T05:40:15.912Z,9.10
2022-08-26T05:45:24.708Z,10.95
2022-08-26T05:50:30.610Z,11.10
2022-08-26T05:55:36.094Z,11.03
2022-08-26T06:00:49.163Z,8.75
2022-08-26T06:05:55.395Z,7.50
2022-08-26T06:11:05.361Z,9.27
2022-08-26T06:16:16.213Z,9.07
2022-08-26T06:21:24.095Z,8.45
2022-08-26T06:26:29.953Z,8.53
2022-08-26T06:31:39.997Z,7.90
2022-08-26T06:36:47.904Z,10.15
2022-08-26T06:41:53.874Z,8.60
2022-08-26T06:47:03.351Z,9.83
2022-08-26T06:52:09.269Z,7.88
2022-08-26T06:57:16.779Z,9.57
2022-08-26T07:02:28.574Z,8.77
2022-08-26T07:07:35.889Z,10.57
2022-08-26T07:12:42.119Z,9.65
2022-08-26T07:17:55.659Z,9.07
2022-08-26T07:23:02.171Z,10.98
2022-08-26T07:28:07.937Z,11.40
2022-08-26T07:33:19.323Z,11.33
2022-08-26T07:38:24.894Z,9.03
2022-08-26T07:43:30.595Z,11.05
2022-08-26T07:48:39.451Z,11.48
2022-08-26T07:53:53.041Z,7.63
2022-08-26T07:58:58.863Z,9.05
2022-08-26T08:04:08.195Z,9.13
2022-08-26T08:09:17.105Z,13.37
2022-08-26T08:14:23.307Z,15.65
2022-08-26T08:19:37.005Z,11.65
2022-08-26T08:24:44.484Z,9.00
2022-08-26T08:29:50.192Z,7.07
2022-08-26T08:34:58.908Z,8.25
2022-08-26T08:40:09.888Z,8.77
2022-08-26T08:45:20.397Z,7.93
2022-08-26T08:50:33.910Z,9.27
2022-08-26T08:55:50.393Z,10.13
2022-08-26T09:01:05.017Z,10.50
2022-08-26T09:06:17.439Z,8.20
2022-08-26T09:11:23.344Z,7.30
2022-08-26T09:16:39.779Z,6.83
2022-08-26T09:21:57.588Z,6.60
2022-08-26T09:27:02.951Z,5.88
2022-08-26T09:32:24.460Z,8.35
2022-08-26T09:43:22.909Z,7.25
2022-08-26T09:48:32.479Z,6.20
2022-08-26T09:53:57.665Z,6.77
2022-08-26T09:59:06.455Z,5.57
2022-08-26T10:04:16.423Z,5.40
2022-08-26T10:09:29.790Z,4.93
2022-08-26T10:14:37.387Z,5.60
2022-08-26T10:19:57.078Z,5.60
2022-08-26T10:25:11.111Z,6.70
2022-08-26T10:30:20.938Z,7.80
2022-08-26T10:35:27.177Z,6.57
2022-08-26T10:40:45.350Z,6.55
2022-08-26T10:45:57.334Z,5.60
2022-08-26T10:51:05.685Z,5.22
2022-08-26T10:56:25.436Z,5.70
2022-08-26T11:01:52.444Z,6.67
2022-08-26T11:07:28.272Z,7.20
2022-08-26T11:13:07.239Z,6.05
2022-08-26T11:18:14.778Z,5.80
2022-08-26T11:23:43.293Z,7.43
2022-08-26T11:28:53.605Z,7.10
2022-08-26T11:34:03.074Z,7.05
2022-08-26T11:39:18.668Z,6.10
2022-08-26T11:44:29.934Z,5.10
2022-08-26T11:49:35.755Z,4.15
2022-08-26T11:54:42.202Z,4.67
2022-08-26T11:59:50.247Z,4.10
2022-08-26T12:04:57.698Z,4.68
2022-08-26T12:10:04.835Z,4.35
2022-08-26T12:15:18.632Z,4.10
2022-08-26T12:20:46.199Z,3.95
2022-08-26T12:25:53.768Z,5.40
2022-08-26T12:31:07.301Z,4.53
2022-08-26T12:36:13.437Z,4.55
2022-08-26T12:41:44.881Z,4.40
2022-08-26T12:46:53.197Z,3.57
2022-08-26T12:51:58.769Z,3.57
2022-08-26T12:57:12.930Z,3.65
2022-08-26T13:02:41.741Z,2.78
2022-08-26T13:07:47.065Z,3.70
2022-08-26T13:12:52.643Z,3.10
2022-08-26T13:18:01.028Z,3.28
2022-08-26T13:23:06.432Z,2.50
2022-08-26T13:28:11.849Z,3.22
2022-08-26T13:33:22.774Z,2.83
2022-08-26T13:38:33.254Z,3.23
2022-08-26T13:43:39.943Z,2.60
2022-08-26T13:48:47.870Z,2.05
2022-08-26T13:53:53.897Z,1.83
2022-08-26T13:59:01.362Z,1.70
2022-08-26T14:04:10.200Z,2.05
2022-08-26T14:09:16.055Z,2.03
2022-08-26T14:14:21.420Z,2.07
2022-08-26T14:19:30.249Z,1.88
2022-08-26T14:24:35.889Z,1.80
2022-08-26T14:29:42.123Z,2.03
2022-08-26T14:34:50.415Z,1.70
2022-08-26T14:39:57.079Z,2.13
2022-08-26T14:45:05.661Z,1.75
2022-08-26T14:50:15.246Z,1.70
2022-08-26T14:55:21.001Z,1.80
2022-08-26T15:00:26.494Z,1.85
2022-08-26T15:05:36.065Z,2.40
2022-08-26T15:10:42.079Z,2.00
2022-08-26T15:15:47.657Z,2.20
2022-08-26T15:20:56.305Z,2.10
2022-08-26T15:26:01.961Z,2.30
2022-08-26T15:31:08.816Z,2.03
2022-08-26T15:36:16.915Z,2.00
2022-08-26T15:41:22.487Z,1.97
2022-08-26T15:46:28.248Z,2.42
2022-08-26T15:51:45.160Z,1.40
2022-08-26T15:56:53.137Z,1.70
2022-08-26T16:01:59.384Z,2.20
2022-08-26T16:07:07.762Z,2.00
2022-08-26T16:17:19.512Z,1.83
2022-08-26T16:22:28.581Z,2.13
2022-08-26T16:27:36.305Z,1.88
2022-08-26T16:32:43.205Z,2.00
2022-08-26T16:37:51.389Z,2.08
2022-08-26T16:42:57.503Z,1.80
2022-08-26T16:48:03.127Z,1.93
2022-08-26T16:58:37.008Z,1.77
2022-08-26T17:03:42.845Z,2.00
2022-08-26T17:08:51.477Z,2.07
2022-08-26T17:13:57.517Z,1.60
2022-08-26T17:19:04.751Z,2.05
2022-08-26T17:24:12.984Z,1.63
2022-08-26T17:29:18.485Z,1.70
2022-08-26T17:34:24.919Z,2.20
2022-08-26T17:39:33.157Z,1.93
2022-08-26T17:44:38.694Z,1.92
2022-08-26T17:49:44.499Z,1.63
2022-08-26T17:54:55.862Z,1.87
2022-08-26T18:00:01.204Z,1.93
2022-08-26T18:05:14.422Z,1.95
2022-08-26T18:10:25.753Z,1.77
2022-08-26T18:15:31.385Z,1.67
2022-08-26T18:20:37.541Z,1.63
2022-08-26T18:25:47.263Z,1.70
2022-08-26T18:30:52.700Z,1.57
2022-08-26T18:35:59.013Z,1.52
2022-08-26T18:41:07.924Z,1.77
2022-08-26T18:46:13.987Z,1.40
2022-08-26T18:51:20.715Z,1.73
2022-08-26T18:56:29.945Z,1.60
2022-08-26T19:01:38.049Z,1.42
2022-08-26T19:06:44.394Z,1.40
2022-08-26T19:11:52.825Z,1.45
2022-08-26T19:16:58.264Z,1.80
2022-08-26T19:22:03.875Z,2.00
2022-08-26T19:27:14.930Z,1.98
2022-08-26T19:32:24.448Z,1.65
2022-08-26T19:37:29.969Z,1.37
2022-08-26T19:42:38.156Z,1.30
2022-08-26T19:47:43.867Z,1.30
2022-08-26T19:52:49.771Z,1.30
2022-08-26T19:57:57.886Z,1.50
2022-08-26T20:03:03.796Z,1.48
2022-08-26T20:08:11.660Z,1.50
2022-08-26T20:13:30.894Z,1.57
2022-08-26T20:18:48.815Z,2.13
2022-08-26T20:23:54.765Z,1.52
2022-08-26T20:29:02.952Z,1.30
2022-08-26T20:34:08.664Z,1.37
2022-08-26T20:39:14.708Z,1.40
2022-08-26T20:44:22.903Z,1.48
2022-08-26T20:49:29.867Z,1.60
2022-08-26T20:54:35.452Z,2.00
2022-08-26T20:59:44.378Z,1.40
2022-08-26T21:04:50.023Z,1.50
2022-08-26T21:09:56.020Z,1.38
2022-08-26T21:15:04.324Z,1.60
2022-08-26T21:20:11.684Z,1.33
2022-08-26T21:25:17.393Z,1.90
2022-08-26T21:30:26.274Z,3.42
2022-08-26T21:35:31.853Z,3.83
2022-08-26T21:40:37.235Z,2.80
2022-08-26T21:45:45.909Z,2.40
2022-08-26T21:50:51.270Z,3.75
2022-08-26T21:55:56.768Z,8.70
2022-08-26T22:01:05.290Z,9.18
2022-08-26T22:06:11.144Z,8.38
2022-08-26T22:11:17.968Z,6.20
2022-08-26T22:16:28.923Z,4.87
2022-08-26T22:21:35.947Z,3.05
2022-08-26T22:26:42.104Z,2.20
2022-08-26T22:31:50.430Z,1.63
2022-08-26T22:36:56.184Z,1.90
2022-08-26T22:42:01.750Z,1.98
2022-08-26T22:47:10.073Z,2.40
2022-08-26T22:52:15.777Z,2.40
2022-08-26T22:57:21.921Z,2.67
2022-08-26T23:02:30.166Z,2.77
2022-08-26T23:07:36.393Z,2.90
2022-08-26T23:12:42.175Z,2.83
2022-08-26T23:17:58.384Z,3.03
2022-08-26T23:23:05.094Z,3.00
2022-08-26T23:28:10.544Z,3.40
2022-08-26T23:33:19.065Z,2.88
2022-08-26T23:38:25.066Z,2.50
2022-08-26T23:43:31.229Z,2.90
2022-08-26T23:48:39.846Z,2.75
2022-08-26T23:53:45.928Z,3.10
2022-08-26T23:58:51.667Z,4.60
